sensor_id;sensor_type;location;lat;lon;timestamp;pressure;altitude;pressure_sealevel;temperature;humidity
65997;BME280;52765;52.258;21.052;2023-04-08T00:01:02;101210.09;;;6.44;86.38
65997;BME280;52765;52.258;21.052;2023-04-08T00:03:28;101205.75;;;6.43;86.86
65997;BME280;52765;52.258;21.052;2023-04-08T00:05:54;101214.28;;;6.48;86.54
65997;BME280;52765;52.258;21.052;2023-04-08T00:08:20;101214.50;;;6.45;86.55
65997;BME280;52765;52.258;21.052;2023-04-08T00:10:45;101221.22;;;6.51;86.44
65997;BME280;52765;52.258;21.052;2023-04-08T00:13:11;101218.66;;;6.49;86.86
65997;BME280;52765;52.258;21.052;2023-04-08T00:15:37;101223.16;;;6.48;86.84
65997;BME280;52765;52.258;21.052;2023-04-08T00:18:02;101214.19;;;6.50;86.65
65997;BME280;52765;52.258;21.052;2023-04-08T00:20:28;101218.44;;;6.52;86.99
65997;BME280;52765;52.258;21.052;2023-04-08T00:22:54;101227.09;;;6.56;86.33
65997;BME280;52765;52.258;21.052;2023-04-08T00:25:19;101216.63;;;6.53;86.05
65997;BME280;52765;52.258;21.052;2023-04-08T00:27:45;101219.19;;;6.54;86.75
65997;BME280;52765;52.258;21.052;2023-04-08T00:30:10;101224.53;;;6.54;86.81
65997;BME280;52765;52.258;21.052;2023-04-08T00:32:36;101219.19;;;6.54;86.78
65997;BME280;52765;52.258;21.052;2023-04-08T00:35:02;101217.91;;;6.60;87.12
65997;BME280;52765;52.258;21.052;2023-04-08T00:37:28;101221.31;;;6.62;86.41
65997;BME280;52765;52.258;21.052;2023-04-08T00:39:54;101223.16;;;6.61;86.25
65997;BME280;52765;52.258;21.052;2023-04-08T00:42:25;101209.25;;;6.56;85.64
65997;BME280;52765;52.258;21.052;2023-04-08T00:44:51;101211.25;;;6.53;84.58
65997;BME280;52765;52.258;21.052;2023-04-08T00:47:17;101222.38;;;6.59;85.37
65997;BME280;52765;52.258;21.052;2023-04-08T00:49:45;101224.09;;;6.60;85.46
65997;BME280;52765;52.258;21.052;2023-04-08T00:52:14;101222.16;;;6.62;85.54
65997;BME280;52765;52.258;21.052;2023-04-08T00:54:41;101218.97;;;6.57;86.28
65997;BME280;52765;52.258;21.052;2023-04-08T00:57:08;101231.72;;;6.54;86.40
65997;BME280;52765;52.258;21.052;2023-04-08T00:59:34;101227.22;;;6.54;85.46
65997;BME280;52765;52.258;21.052;2023-04-08T01:02:35;101235.34;;;6.53;85.29
65997;BME280;52765;52.258;21.052;2023-04-08T01:05:12;101239.22;;;6.48;85.58
65997;BME280;52765;52.258;21.052;2023-04-08T01:07:48;101243.63;;;6.50;85.91
65997;BME280;52765;52.258;21.052;2023-04-08T01:10:22;101240.41;;;6.44;85.04
65997;BME280;52765;52.258;21.052;2023-04-08T01:12:57;101247.25;;;6.48;85.16
65997;BME280;52765;52.258;21.052;2023-04-08T01:15:25;101225.53;;;6.40;84.97
65997;BME280;52765;52.258;21.052;2023-04-08T01:17:53;101239.44;;;6.45;84.87
65997;BME280;52765;52.258;21.052;2023-04-08T01:20:21;101241.81;;;6.37;85.30
65997;BME280;52765;52.258;21.052;2023-04-08T01:27:57;101254.00;;;6.28;86.33
65997;BME280;52765;52.258;21.052;2023-04-08T01:30:25;101247.91;;;6.26;86.24
65997;BME280;52765;52.258;21.052;2023-04-08T01:32:55;101244.81;;;6.20;85.86
65997;BME280;52765;52.258;21.052;2023-04-08T01:35:22;101239.56;;;6.05;86.14
65997;BME280;52765;52.258;21.052;2023-04-08T01:37:50;101242.44;;;6.02;85.91
65997;BME280;52765;52.258;21.052;2023-04-08T01:40:17;101238.66;;;5.92;86.62
65997;BME280;52765;52.258;21.052;2023-04-08T01:42:46;101235.75;;;5.82;86.67
65997;BME280;52765;52.258;21.052;2023-04-08T01:45:13;101235.19;;;5.77;86.99
65997;BME280;52765;52.258;21.052;2023-04-08T01:47:41;101235.72;;;5.69;86.85
65997;BME280;52765;52.258;21.052;2023-04-08T01:50:08;101248.97;;;5.71;87.41
65997;BME280;52765;52.258;21.052;2023-04-08T01:52:34;101242.03;;;5.68;87.63
65997;BME280;52765;52.258;21.052;2023-04-08T01:55:02;101251.00;;;5.67;87.85
65997;BME280;52765;52.258;21.052;2023-04-08T01:57:31;101256.34;;;5.67;88.07
65997;BME280;52765;52.258;21.052;2023-04-08T02:00:02;101269.63;;;5.69;87.94
65997;BME280;52765;52.258;21.052;2023-04-08T02:02:30;101268.66;;;5.70;88.30
65997;BME280;52765;52.258;21.052;2023-04-08T02:04:57;101274.13;;;5.68;88.20
65997;BME280;52765;52.258;21.052;2023-04-08T02:07:23;101267.03;;;5.67;88.52
65997;BME280;52765;52.258;21.052;2023-04-08T02:09:49;101269.81;;;5.66;88.96
65997;BME280;52765;52.258;21.052;2023-04-08T02:12:18;101250.22;;;5.52;89.13
65997;BME280;52765;52.258;21.052;2023-04-08T02:14:43;101263.19;;;5.59;89.66
65997;BME280;52765;52.258;21.052;2023-04-08T02:17:24;101273.13;;;5.56;89.58
65997;BME280;52765;52.258;21.052;2023-04-08T02:25:09;101287.94;;;5.48;90.13
65997;BME280;52765;52.258;21.052;2023-04-08T02:27:36;101279.47;;;5.41;90.53
65997;BME280;52765;52.258;21.052;2023-04-08T02:30:04;101274.34;;;5.38;90.66
65997;BME280;52765;52.258;21.052;2023-04-08T02:32:32;101279.13;;;5.33;90.81
65997;BME280;52765;52.258;21.052;2023-04-08T02:35:00;101290.88;;;5.30;90.79
65997;BME280;52765;52.258;21.052;2023-04-08T02:37:30;101279.63;;;5.25;90.86
65997;BME280;52765;52.258;21.052;2023-04-08T02:39:55;101287.06;;;5.20;91.17
65997;BME280;52765;52.258;21.052;2023-04-08T02:42:21;101288.22;;;5.16;92.00
65997;BME280;52765;52.258;21.052;2023-04-08T02:44:47;101301.47;;;5.17;91.68
65997;BME280;52765;52.258;21.052;2023-04-08T02:47:12;101295.38;;;5.15;92.02
65997;BME280;52765;52.258;21.052;2023-04-08T02:49:38;101308.09;;;5.12;92.08
65997;BME280;52765;52.258;21.052;2023-04-08T02:52:03;101309.13;;;5.09;92.25
65997;BME280;52765;52.258;21.052;2023-04-08T02:54:29;101312.09;;;5.05;92.47
65997;BME280;52765;52.258;21.052;2023-04-08T02:56:56;101314.78;;;5.05;93.06
65997;BME280;52765;52.258;21.052;2023-04-08T02:59:22;101311.50;;;4.99;93.23
65997;BME280;52765;52.258;21.052;2023-04-08T03:01:50;101312.97;;;4.91;93.17
65997;BME280;52765;52.258;21.052;2023-04-08T03:04:15;101312.22;;;4.89;93.30
65997;BME280;52765;52.258;21.052;2023-04-08T03:06:41;101318.81;;;4.83;93.49
65997;BME280;52765;52.258;21.052;2023-04-08T03:09:06;101329.84;;;4.77;93.74
65997;BME280;52765;52.258;21.052;2023-04-08T03:11:32;101318.59;;;4.72;94.02
65997;BME280;52765;52.258;21.052;2023-04-08T03:13:57;101324.69;;;4.74;94.12
65997;BME280;52765;52.258;21.052;2023-04-08T03:16:23;101336.72;;;4.67;93.91
65997;BME280;52765;52.258;21.052;2023-04-08T03:18:49;101326.41;;;4.60;94.58
65997;BME280;52765;52.258;21.052;2023-04-08T03:21:15;101335.09;;;4.64;94.40
65997;BME280;52765;52.258;21.052;2023-04-08T03:23:41;101332.91;;;4.56;94.60
65997;BME280;52765;52.258;21.052;2023-04-08T03:26:06;101331.53;;;4.49;95.15
65997;BME280;52765;52.258;21.052;2023-04-08T03:28:32;101332.59;;;4.47;94.94
65997;BME280;52765;52.258;21.052;2023-04-08T03:30:57;101342.69;;;4.41;94.92
65997;BME280;52765;52.258;21.052;2023-04-08T03:33:23;101342.09;;;4.36;95.54
65997;BME280;52765;52.258;21.052;2023-04-08T03:35:48;101340.66;;;4.31;95.91
65997;BME280;52765;52.258;21.052;2023-04-08T03:38:14;101344.28;;;4.30;95.41
65997;BME280;52765;52.258;21.052;2023-04-08T03:40:39;101334.84;;;4.24;95.67
65997;BME280;52765;52.258;21.052;2023-04-08T03:43:05;101344.66;;;4.23;96.30
65997;BME280;52765;52.258;21.052;2023-04-08T03:45:33;101346.56;;;4.21;96.28
65997;BME280;52765;52.258;21.052;2023-04-08T03:47:58;101347.59;;;4.19;95.89
65997;BME280;52765;52.258;21.052;2023-04-08T03:50:24;101355.78;;;4.16;96.05
65997;BME280;52765;52.258;21.052;2023-04-08T03:52:49;101349.09;;;4.08;96.45
65997;BME280;52765;52.258;21.052;2023-04-08T03:55:15;101365.00;;;4.10;96.25
65997;BME280;52765;52.258;21.052;2023-04-08T03:57:41;101353.16;;;4.00;95.46
65997;BME280;52765;52.258;21.052;2023-04-08T04:00:08;101353.69;;;3.91;96.32
65997;BME280;52765;52.258;21.052;2023-04-08T04:02:34;101364.19;;;3.94;96.94
65997;BME280;52765;52.258;21.052;2023-04-08T04:04:59;101349.38;;;3.88;97.36
65997;BME280;52765;52.258;21.052;2023-04-08T04:07:25;101369.59;;;3.92;97.24
65997;BME280;52765;52.258;21.052;2023-04-08T04:09:50;101362.72;;;3.88;97.12
65997;BME280;52765;52.258;21.052;2023-04-08T04:12:18;101359.53;;;3.81;97.61
65997;BME280;52765;52.258;21.052;2023-04-08T04:14:52;101375.28;;;3.86;97.94
65997;BME280;52765;52.258;21.052;2023-04-08T04:17:18;101370.81;;;3.86;97.48
65997;BME280;52765;52.258;21.052;2023-04-08T04:19:44;101366.44;;;3.85;97.33
65997;BME280;52765;52.258;21.052;2023-04-08T04:22:09;101384.03;;;3.88;97.86
65997;BME280;52765;52.258;21.052;2023-04-08T04:24:35;101369.09;;;3.85;97.46
65997;BME280;52765;52.258;21.052;2023-04-08T04:27:10;101373.28;;;3.89;98.20
65997;BME280;52765;52.258;21.052;2023-04-08T04:29:36;101383.69;;;3.94;97.68
65997;BME280;52765;52.258;21.052;2023-04-08T04:32:01;101388.19;;;3.94;97.55
65997;BME280;52765;52.258;21.052;2023-04-08T04:34:27;101388.25;;;3.92;97.31
65997;BME280;52765;52.258;21.052;2023-04-08T04:36:52;101396.25;;;3.92;97.01
65997;BME280;52765;52.258;21.052;2023-04-08T04:39:18;101402.53;;;3.91;97.39
65997;BME280;52765;52.258;21.052;2023-04-08T04:41:43;101386.91;;;3.85;97.10
65997;BME280;52765;52.258;21.052;2023-04-08T04:44:09;101402.63;;;3.89;97.49
65997;BME280;52765;52.258;21.052;2023-04-08T04:46:34;101400.91;;;3.88;97.64
65997;BME280;52765;52.258;21.052;2023-04-08T04:49:00;101404.34;;;3.91;97.91
65997;BME280;52765;52.258;21.052;2023-04-08T04:51:25;101404.00;;;3.97;97.32
65997;BME280;52765;52.258;21.052;2023-04-08T04:53:51;101408.19;;;4.01;97.20
65997;BME280;52765;52.258;21.052;2023-04-08T04:56:16;101410.00;;;4.00;97.48
65997;BME280;52765;52.258;21.052;2023-04-08T04:58:42;101414.19;;;4.04;96.76
65997;BME280;52765;52.258;21.052;2023-04-08T05:01:07;101413.59;;;3.99;96.98
65997;BME280;52765;52.258;21.052;2023-04-08T05:03:33;101402.94;;;3.99;97.24
65997;BME280;52765;52.258;21.052;2023-04-08T05:05:59;101415.94;;;4.05;97.58
65997;BME280;52765;52.258;21.052;2023-04-08T05:08:24;101415.69;;;4.10;97.20
65997;BME280;52765;52.258;21.052;2023-04-08T05:10:50;101423.41;;;4.15;96.97
65997;BME280;52765;52.258;21.052;2023-04-08T05:13:16;101420.63;;;4.16;96.81
65997;BME280;52765;52.258;21.052;2023-04-08T05:15:41;101425.97;;;4.16;96.97
65997;BME280;52765;52.258;21.052;2023-04-08T05:18:08;101430.09;;;4.22;96.55
65997;BME280;52765;52.258;21.052;2023-04-08T05:20:33;101428.88;;;4.28;96.04
65997;BME280;52765;52.258;21.052;2023-04-08T05:22:58;101428.59;;;4.32;96.15
65997;BME280;52765;52.258;21.052;2023-04-08T05:25:24;101430.94;;;4.38;95.77
65997;BME280;52765;52.258;21.052;2023-04-08T05:27:49;101426.00;;;4.47;95.25
65997;BME280;52765;52.258;21.052;2023-04-08T05:30:15;101428.19;;;4.54;94.93
65997;BME280;52765;52.258;21.052;2023-04-08T05:32:41;101426.09;;;4.59;95.05
65997;BME280;52765;52.258;21.052;2023-04-08T05:35:06;101429.66;;;4.60;94.98
65997;BME280;52765;52.258;21.052;2023-04-08T05:37:33;101429.47;;;4.63;94.59
65997;BME280;52765;52.258;21.052;2023-04-08T05:39:59;101422.88;;;4.69;93.96
65997;BME280;52765;52.258;21.052;2023-04-08T05:42:24;101427.47;;;4.81;93.95
65997;BME280;52765;52.258;21.052;2023-04-08T05:44:51;101432.28;;;4.90;93.49
65997;BME280;52765;52.258;21.052;2023-04-08T05:47:16;101437.16;;;4.98;93.73
65997;BME280;52765;52.258;21.052;2023-04-08T05:49:42;101439.25;;;5.07;93.02
65997;BME280;52765;52.258;21.052;2023-04-08T05:52:07;101438.88;;;5.13;92.79
65997;BME280;52765;52.258;21.052;2023-04-08T05:54:33;101443.72;;;5.21;92.40
65997;BME280;52765;52.258;21.052;2023-04-08T05:56:58;101448.50;;;5.30;91.81
65997;BME280;52765;52.258;21.052;2023-04-08T05:59:24;101457.84;;;5.37;91.21
65997;BME280;52765;52.258;21.052;2023-04-08T06:01:49;101452.03;;;5.45;91.31
65997;BME280;52765;52.258;21.052;2023-04-08T06:04:15;101456.78;;;5.54;91.27
65997;BME280;52765;52.258;21.052;2023-04-08T06:06:42;101456.28;;;5.62;90.73
65997;BME280;52765;52.258;21.052;2023-04-08T06:09:07;101455.63;;;5.73;89.77
65997;BME280;52765;52.258;21.052;2023-04-08T06:11:34;101453.19;;;5.83;89.10
65997;BME280;52765;52.258;21.052;2023-04-08T06:13:59;101458.59;;;5.96;89.14
65997;BME280;52765;52.258;21.052;2023-04-08T06:16:25;101456.31;;;6.04;88.77
65997;BME280;52765;52.258;21.052;2023-04-08T06:18:50;101454.66;;;6.16;88.24
65997;BME280;52765;52.258;21.052;2023-04-08T06:21:16;101446.34;;;6.20;87.06
65997;BME280;52765;52.258;21.052;2023-04-08T06:23:41;101453.31;;;6.23;85.16
65997;BME280;52765;52.258;21.052;2023-04-08T06:26:07;101454.50;;;6.32;84.89
65997;BME280;52765;52.258;21.052;2023-04-08T06:28:32;101455.06;;;6.37;84.90
65997;BME280;52765;52.258;21.052;2023-04-08T06:30:58;101451.84;;;6.44;85.01
65997;BME280;52765;52.258;21.052;2023-04-08T06:33:23;101462.16;;;6.51;84.38
65997;BME280;52765;52.258;21.052;2023-04-08T06:35:49;101455.22;;;6.61;83.97
65997;BME280;52765;52.258;21.052;2023-04-08T06:38:23;101458.78;;;6.74;82.35
65997;BME280;52765;52.258;21.052;2023-04-08T06:40:48;101455.78;;;6.79;81.87
65997;BME280;52765;52.258;21.052;2023-04-08T06:43:13;101458.16;;;6.83;80.31
65997;BME280;52765;52.258;21.052;2023-04-08T06:45:39;101458.47;;;6.92;80.69
65997;BME280;52765;52.258;21.052;2023-04-08T06:48:04;101462.13;;;7.03;80.21
65997;BME280;52765;52.258;21.052;2023-04-08T06:50:33;101463.09;;;7.15;80.14
65997;BME280;52765;52.258;21.052;2023-04-08T06:52:58;101459.78;;;7.25;79.63
65997;BME280;52765;52.258;21.052;2023-04-08T06:55:24;101464.47;;;7.34;78.09
65997;BME280;52765;52.258;21.052;2023-04-08T06:57:50;101462.84;;;7.44;76.41
65997;BME280;52765;52.258;21.052;2023-04-08T07:00:15;101444.44;;;7.39;76.46
65997;BME280;52765;52.258;21.052;2023-04-08T07:02:43;101470.88;;;7.57;74.99
65997;BME280;52765;52.258;21.052;2023-04-08T07:05:09;101473.44;;;7.58;73.76
65997;BME280;52765;52.258;21.052;2023-04-08T07:07:34;101466.88;;;7.63;74.36
65997;BME280;52765;52.258;21.052;2023-04-08T07:10:00;101470.66;;;7.73;74.58
65997;BME280;52765;52.258;21.052;2023-04-08T07:12:26;101458.16;;;7.85;73.25
65997;BME280;52765;52.258;21.052;2023-04-08T07:14:51;101474.09;;;7.99;72.05
65997;BME280;52765;52.258;21.052;2023-04-08T07:17:17;101469.91;;;8.08;71.01
65997;BME280;52765;52.258;21.052;2023-04-08T07:19:43;101462.19;;;8.03;69.92
65997;BME280;52765;52.258;21.052;2023-04-08T07:22:08;101469.63;;;8.11;70.25
65997;BME280;52765;52.258;21.052;2023-04-08T07:24:34;101465.06;;;8.24;69.13
65997;BME280;52765;52.258;21.052;2023-04-08T07:26:59;101469.78;;;8.33;69.00
65997;BME280;52765;52.258;21.052;2023-04-08T07:29:25;101465.63;;;8.41;68.48
65997;BME280;52765;52.258;21.052;2023-04-08T07:31:52;101470.88;;;8.55;67.78
65997;BME280;52765;52.258;21.052;2023-04-08T07:34:17;101472.88;;;8.64;67.73
65997;BME280;52765;52.258;21.052;2023-04-08T07:36:43;101475.56;;;8.76;67.37
65997;BME280;52765;52.258;21.052;2023-04-08T07:39:08;101475.50;;;8.88;67.04
65997;BME280;52765;52.258;21.052;2023-04-08T07:41:34;101466.19;;;8.81;67.52
65997;BME280;52765;52.258;21.052;2023-04-08T07:43:59;101479.78;;;8.91;67.19
65997;BME280;52765;52.258;21.052;2023-04-08T07:46:25;101482.22;;;8.94;66.83
65997;BME280;52765;52.258;21.052;2023-04-08T07:48:50;101478.81;;;9.03;66.17
65997;BME280;52765;52.258;21.052;2023-04-08T07:51:16;101482.00;;;9.08;65.42
65997;BME280;52765;52.258;21.052;2023-04-08T07:53:41;101481.78;;;9.12;65.36
65997;BME280;52765;52.258;21.052;2023-04-08T07:56:14;101483.63;;;9.11;65.19
65997;BME280;52765;52.258;21.052;2023-04-08T07:58:40;101484.09;;;9.16;65.57
65997;BME280;52765;52.258;21.052;2023-04-08T08:01:19;101480.56;;;9.27;64.97
65997;BME280;52765;52.258;21.052;2023-04-08T08:03:46;101467.72;;;9.31;65.00
65997;BME280;52765;52.258;21.052;2023-04-08T08:06:12;101480.69;;;9.37;64.29
65997;BME280;52765;52.258;21.052;2023-04-08T08:08:37;101477.75;;;9.40;64.84
65997;BME280;52765;52.258;21.052;2023-04-08T08:11:03;101482.41;;;9.49;64.49
65997;BME280;52765;52.258;21.052;2023-04-08T08:13:28;101473.59;;;9.58;64.58
65997;BME280;52765;52.258;21.052;2023-04-08T08:15:54;101479.94;;;9.69;63.59
65997;BME280;52765;52.258;21.052;2023-04-08T08:18:19;101472.25;;;9.75;62.32
65997;BME280;52765;52.258;21.052;2023-04-08T08:20:45;101480.44;;;9.85;62.43
65997;BME280;52765;52.258;21.052;2023-04-08T08:23:11;101471.50;;;9.96;62.38
65997;BME280;52765;52.258;21.052;2023-04-08T08:25:36;101467.66;;;10.10;62.20
65997;BME280;52765;52.258;21.052;2023-04-08T08:28:02;101481.94;;;10.22;61.83
65997;BME280;52765;52.258;21.052;2023-04-08T08:30:27;101471.63;;;10.38;61.45
65997;BME280;52765;52.258;21.052;2023-04-08T08:32:53;101470.00;;;10.47;61.34
65997;BME280;52765;52.258;21.052;2023-04-08T08:35:18;101463.25;;;10.52;60.93
65997;BME280;52765;52.258;21.052;2023-04-08T08:37:44;101478.63;;;10.62;60.68
65997;BME280;52765;52.258;21.052;2023-04-08T08:40:10;101470.16;;;10.66;59.93
65997;BME280;52765;52.258;21.052;2023-04-08T08:42:36;101464.78;;;10.66;59.19
65997;BME280;52765;52.258;21.052;2023-04-08T08:45:02;101461.41;;;10.74;59.15
65997;BME280;52765;52.258;21.052;2023-04-08T08:47:28;101459.22;;;10.79;59.00
65997;BME280;52765;52.258;21.052;2023-04-08T08:49:54;101459.66;;;10.84;59.08
65997;BME280;52765;52.258;21.052;2023-04-08T08:52:20;101460.00;;;10.91;58.94
65997;BME280;52765;52.258;21.052;2023-04-08T08:54:46;101463.28;;;10.95;59.01
65997;BME280;52765;52.258;21.052;2023-04-08T08:57:20;101457.06;;;11.04;57.23
65997;BME280;52765;52.258;21.052;2023-04-08T08:59:46;101460.19;;;10.99;56.96
65997;BME280;52765;52.258;21.052;2023-04-08T09:02:26;101459.19;;;11.00;57.00
65997;BME280;52765;52.258;21.052;2023-04-08T09:05:10;101469.13;;;11.00;56.66
65997;BME280;52765;52.258;21.052;2023-04-08T09:07:36;101461.03;;;11.00;57.31
65997;BME280;52765;52.258;21.052;2023-04-08T09:10:05;101466.50;;;11.09;57.20
65997;BME280;52765;52.258;21.052;2023-04-08T09:12:30;101464.97;;;11.17;56.57
65997;BME280;52765;52.258;21.052;2023-04-08T09:15:03;101470.28;;;11.28;55.45
65997;BME280;52765;52.258;21.052;2023-04-08T09:17:37;101467.44;;;11.29;55.73
65997;BME280;52765;52.258;21.052;2023-04-08T09:20:07;101467.38;;;11.41;55.42
65997;BME280;52765;52.258;21.052;2023-04-08T09:22:55;101472.13;;;11.58;55.25
65997;BME280;52765;52.258;21.052;2023-04-08T09:25:23;101470.44;;;11.67;55.13
65997;BME280;52765;52.258;21.052;2023-04-08T09:27:49;101465.31;;;11.64;54.90
65997;BME280;52765;52.258;21.052;2023-04-08T09:30:16;101477.56;;;11.68;55.21
65997;BME280;52765;52.258;21.052;2023-04-08T09:32:56;101477.88;;;11.75;54.37
65997;BME280;52765;52.258;21.052;2023-04-08T09:35:22;101480.19;;;11.89;54.01
65997;BME280;52765;52.258;21.052;2023-04-08T09:37:49;101478.00;;;12.04;53.12
65997;BME280;52765;52.258;21.052;2023-04-08T09:40:15;101470.59;;;12.06;53.49
65997;BME280;52765;52.258;21.052;2023-04-08T09:42:46;101481.41;;;12.06;54.46
65997;BME280;52765;52.258;21.052;2023-04-08T09:45:14;101468.47;;;12.10;54.34
65997;BME280;52765;52.258;21.052;2023-04-08T09:47:54;101470.31;;;12.19;54.10
65997;BME280;52765;52.258;21.052;2023-04-08T09:50:25;101465.31;;;12.05;54.09
65997;BME280;52765;52.258;21.052;2023-04-08T09:52:59;101466.44;;;12.02;54.45
65997;BME280;52765;52.258;21.052;2023-04-08T09:55:26;101469.88;;;12.04;54.29
65997;BME280;52765;52.258;21.052;2023-04-08T09:58:02;101465.91;;;12.18;53.77
65997;BME280;52765;52.258;21.052;2023-04-08T10:00:33;101470.59;;;12.26;53.41
65997;BME280;52765;52.258;21.052;2023-04-08T10:05:34;101457.38;;;12.42;52.72
65997;BME280;52765;52.258;21.052;2023-04-08T10:08:02;101456.41;;;12.53;53.20
65997;BME280;52765;52.258;21.052;2023-04-08T10:10:28;101461.06;;;12.70;52.67
65997;BME280;52765;52.258;21.052;2023-04-08T10:12:54;101457.81;;;12.76;51.62
65997;BME280;52765;52.258;21.052;2023-04-08T10:15:30;101455.38;;;12.73;50.89
65997;BME280;52765;52.258;21.052;2023-04-08T10:23:07;101450.50;;;13.06;50.92
65997;BME280;52765;52.258;21.052;2023-04-08T10:25:33;101446.16;;;13.23;50.74
65997;BME280;52765;52.258;21.052;2023-04-08T10:28:00;101453.84;;;13.38;50.21
65997;BME280;52765;52.258;21.052;2023-04-08T10:32:59;101448.50;;;13.56;48.75
65997;BME280;52765;52.258;21.052;2023-04-08T10:35:35;101453.59;;;13.59;48.17
65997;BME280;52765;52.258;21.052;2023-04-08T10:38:01;101445.63;;;13.57;47.85
65997;BME280;52765;52.258;21.052;2023-04-08T10:40:27;101453.31;;;13.62;47.51
65997;BME280;52765;52.258;21.052;2023-04-08T10:42:56;101442.75;;;13.59;47.45
65997;BME280;52765;52.258;21.052;2023-04-08T10:45:22;101448.81;;;13.53;47.76
65997;BME280;52765;52.258;21.052;2023-04-08T10:47:48;101446.38;;;13.49;47.54
65997;BME280;52765;52.258;21.052;2023-04-08T10:50:15;101446.50;;;13.58;47.73
65997;BME280;52765;52.258;21.052;2023-04-08T10:52:51;101447.16;;;13.69;47.03
65997;BME280;52765;52.258;21.052;2023-04-08T10:55:24;101449.16;;;13.67;46.94
65997;BME280;52765;52.258;21.052;2023-04-08T10:57:50;101439.41;;;13.75;46.67
65997;BME280;52765;52.258;21.052;2023-04-08T11:00:33;101428.97;;;13.80;46.81
65997;BME280;52765;52.258;21.052;2023-04-08T11:03:03;101435.59;;;13.95;46.11
65997;BME280;52765;52.258;21.052;2023-04-08T11:05:28;101435.91;;;14.10;45.54
65997;BME280;52765;52.258;21.052;2023-04-08T11:07:54;101438.94;;;14.25;45.33
65997;BME280;52765;52.258;21.052;2023-04-08T11:10:20;101439.81;;;14.25;44.66
65997;BME280;52765;52.258;21.052;2023-04-08T11:12:45;101433.44;;;14.35;44.72
65997;BME280;52765;52.258;21.052;2023-04-08T11:15:12;101429.22;;;14.32;45.12
65997;BME280;52765;52.258;21.052;2023-04-08T11:17:38;101430.81;;;14.43;45.53
65997;BME280;52765;52.258;21.052;2023-04-08T11:20:04;101433.38;;;14.44;45.00
65997;BME280;52765;52.258;21.052;2023-04-08T11:22:32;101428.41;;;14.58;44.45
65997;BME280;52765;52.258;21.052;2023-04-08T11:24:59;101428.28;;;14.59;44.60
65997;BME280;52765;52.258;21.052;2023-04-08T11:27:25;101428.34;;;14.68;44.62
65997;BME280;52765;52.258;21.052;2023-04-08T11:29:55;101429.16;;;14.86;43.57
65997;BME280;52765;52.258;21.052;2023-04-08T11:32:21;101421.47;;;14.82;42.74
65997;BME280;52765;52.258;21.052;2023-04-08T11:34:48;101424.78;;;14.93;42.55
65997;BME280;52765;52.258;21.052;2023-04-08T11:37:14;101423.38;;;15.07;42.83
65997;BME280;52765;52.258;21.052;2023-04-08T11:39:42;101418.00;;;15.15;42.13
65997;BME280;52765;52.258;21.052;2023-04-08T11:42:08;101417.81;;;15.17;42.73
65997;BME280;52765;52.258;21.052;2023-04-08T11:44:33;101412.47;;;15.33;42.57
65997;BME280;52765;52.258;21.052;2023-04-08T11:46:59;101415.94;;;15.44;42.08
65997;BME280;52765;52.258;21.052;2023-04-08T11:49:26;101414.91;;;15.45;42.40
65997;BME280;52765;52.258;21.052;2023-04-08T11:51:57;101411.72;;;15.58;42.54
65997;BME280;52765;52.258;21.052;2023-04-08T11:54:31;101399.69;;;15.68;42.63
65997;BME280;52765;52.258;21.052;2023-04-08T11:56:57;101404.22;;;15.51;43.06
65997;BME280;52765;52.258;21.052;2023-04-08T11:59:24;101408.44;;;15.38;42.94
65997;BME280;52765;52.258;21.052;2023-04-08T12:01:51;101400.25;;;15.03;43.32
65997;BME280;52765;52.258;21.052;2023-04-08T12:04:17;101410.66;;;14.64;44.16
65997;BME280;52765;52.258;21.052;2023-04-08T12:06:42;101406.56;;;14.41;44.84
65997;BME280;52765;52.258;21.052;2023-04-08T12:09:14;101409.59;;;14.20;45.21
65997;BME280;52765;52.258;21.052;2023-04-08T12:11:40;101404.97;;;14.13;45.25
65997;BME280;52765;52.258;21.052;2023-04-08T12:14:05;101396.50;;;13.98;45.47
65997;BME280;52765;52.258;21.052;2023-04-08T12:16:31;101406.31;;;13.99;45.36
65997;BME280;52765;52.258;21.052;2023-04-08T12:18:56;101398.44;;;14.41;44.88
65997;BME280;52765;52.258;21.052;2023-04-08T12:21:22;101400.53;;;14.66;44.25
65997;BME280;52765;52.258;21.052;2023-04-08T12:23:47;101390.44;;;15.02;43.73
65997;BME280;52765;52.258;21.052;2023-04-08T12:26:13;101387.63;;;14.86;43.16
65997;BME280;52765;52.258;21.052;2023-04-08T12:28:39;101391.28;;;14.76;42.97
65997;BME280;52765;52.258;21.052;2023-04-08T12:31:04;101384.66;;;15.05;41.67
65997;BME280;52765;52.258;21.052;2023-04-08T12:33:30;101381.50;;;15.52;40.54
65997;BME280;52765;52.258;21.052;2023-04-08T12:35:56;101378.75;;;15.95;39.53
65997;BME280;52765;52.258;21.052;2023-04-08T12:38:24;101379.44;;;16.14;39.40
65997;BME280;52765;52.258;21.052;2023-04-08T12:40:50;101382.31;;;15.87;39.90
65997;BME280;52765;52.258;21.052;2023-04-08T12:43:16;101377.59;;;16.22;39.20
65997;BME280;52765;52.258;21.052;2023-04-08T12:45:42;101369.25;;;16.73;38.33
65997;BME280;52765;52.258;21.052;2023-04-08T12:48:07;101362.75;;;16.99;38.46
65997;BME280;52765;52.258;21.052;2023-04-08T12:50:33;101367.63;;;17.20;37.64
65997;BME280;52765;52.258;21.052;2023-04-08T12:52:58;101362.31;;;17.66;37.26
65997;BME280;52765;52.258;21.052;2023-04-08T12:55:24;101369.28;;;18.00;37.17
65997;BME280;52765;52.258;21.052;2023-04-08T12:57:51;101374.41;;;17.64;37.52
65997;BME280;52765;52.258;21.052;2023-04-08T13:00:16;101367.88;;;17.42;38.18
65997;BME280;52765;52.258;21.052;2023-04-08T13:02:42;101363.53;;;17.64;37.79
65997;BME280;52765;52.258;21.052;2023-04-08T13:05:09;101361.09;;;17.69;37.83